Time;durP1;ratioP1;P1;durP2;ratioP2;P2;SDS_P1;SDS_P2;PMS_P1;PMS_P2;Temp;Humidity;BMP_temperature;BMP_pressure;BME280_temperature;BME280_humidity;BME280_pressure;Samples;Min_cycle;Max_cycle;Signal;HPM_P1;HPM_P2
2023/06/16 00:02:07;;;;;;;11.00;9.90;;;;;;;;;;5081872;28;20049;-80
2023/06/16 00:04:35;;;;;;;12.63;11.13;;;;;;;;;;5081357;28;20040;-79
2023/06/16 00:07:01;;;;;;;12.90;11.30;;;;;;;;;;5089030;28;20395;-79
2023/06/16 00:09:28;;;;;;;12.80;11.32;;;;;;;;;;5087245;28;20044;-79
2023/06/16 00:11:55;;;;;;;13.02;11.43;;;;;;;;;;5066053;28;20040;-80
2023/06/16 00:14:21;;;;;;;12.93;11.57;;;;;;;;;;5082417;28;20076;-79
2023/06/16 00:16:47;;;;;;;14.15;12.15;;;;;;;;;;5081372;28;20111;-79
2023/06/16 00:19:13;;;;;;;14.35;12.57;;;;;;;;;;5082550;28;20052;-80
2023/06/16 00:21:41;;;;;;;13.57;12.20;;;;;;;;;;5081349;28;20056;-80
2023/06/16 00:24:08;;;;;;;13.75;11.60;;;;;;;;;;5081463;28;20040;-79
2023/06/16 00:26:34;;;;;;;13.65;11.60;;;;;;;;;;5064322;28;20057;-80
2023/06/16 00:29:01;;;;;;;12.60;11.27;;;;;;;;;;5081865;28;20036;-80
2023/06/16 00:31:27;;;;;;;14.18;12.07;;;;;;;;;;5082156;28;20044;-80
2023/06/16 00:33:53;;;;;;;15.23;12.75;;;;;;;;;;5080383;28;20040;-80
2023/06/16 00:36:20;;;;;;;12.73;11.43;;;;;;;;;;5081019;28;20068;-80
2023/06/16 00:38:46;;;;;;;15.02;12.57;;;;;;;;;;5075527;28;20056;-80
2023/06/16 00:41:13;;;;;;;16.63;13.95;;;;;;;;;;5080959;28;20102;-80
2023/06/16 00:43:39;;;;;;;19.92;14.43;;;;;;;;;;5076552;28;20040;-80
2023/06/16 00:46:06;;;;;;;16.55;14.18;;;;;;;;;;5080635;28;20609;-80
2023/06/16 00:48:32;;;;;;;17.27;15.02;;;;;;;;;;5081806;28;20044;-79
2023/06/16 00:50:58;;;;;;;16.48;14.75;;;;;;;;;;5062887;28;20410;-79
2023/06/16 00:53:25;;;;;;;18.73;15.73;;;;;;;;;;5080897;28;20051;-80
2023/06/16 00:55:51;;;;;;;18.38;15.30;;;;;;;;;;5079306;28;20556;-80
2023/06/16 00:58:18;;;;;;;16.40;14.25;;;;;;;;;;5057699;28;20108;-79
2023/06/16 01:00:45;;;;;;;16.50;13.90;;;;;;;;;;5058332;28;20055;-80
2023/06/16 01:03:13;;;;;;;15.93;13.05;;;;;;;;;;5076245;28;20060;-80
2023/06/16 01:05:39;;;;;;;15.38;13.88;;;;;;;;;;5076492;28;20071;-79
2023/06/16 01:08:05;;;;;;;18.65;14.38;;;;;;;;;;5078230;28;20053;-79
2023/06/16 01:10:53;;;;;;;17.33;14.77;;;;;;;;;;5086180;28;20556;-80
2023/06/16 01:13:26;;;;;;;18.48;15.43;;;;;;;;;;5087006;28;20071;-80
2023/06/16 01:15:53;;;;;;;18.63;16.52;;;;;;;;;;5082593;28;20060;-80
2023/06/16 01:18:25;;;;;;;17.60;14.95;;;;;;;;;;5077115;28;20117;-79
2023/06/16 01:20:54;;;;;;;18.52;16.00;;;;;;;;;;5074979;28;20037;-79
2023/06/16 01:23:41;;;;;;;20.40;16.17;;;;;;;;;;5074700;28;20048;-80
2023/06/16 01:26:09;;;;;;;18.35;15.88;;;;;;;;;;5068001;28;20124;-79
2023/06/16 01:28:36;;;;;;;18.85;15.73;;;;;;;;;;5056002;28;20368;-80
2023/06/16 01:31:02;;;;;;;19.50;16.02;;;;;;;;;;5061353;28;20052;-79
2023/06/16 01:33:30;;;;;;;18.95;16.42;;;;;;;;;;5077060;28;20093;-79
2023/06/16 01:35:57;;;;;;;20.23;17.08;;;;;;;;;;5082897;28;20068;-79
2023/06/16 01:38:23;;;;;;;19.73;16.67;;;;;;;;;;5086761;28;20040;-79
2023/06/16 01:40:51;;;;;;;25.80;20.05;;;;;;;;;;5066377;28;20044;-79
2023/06/16 01:43:18;;;;;;;21.25;19.00;;;;;;;;;;5082393;28;20048;-80
2023/06/16 01:45:44;;;;;;;20.58;18.10;;;;;;;;;;5079876;28;20040;-80
2023/06/16 01:48:11;;;;;;;21.27;16.38;;;;;;;;;;5081917;28;20044;-80
2023/06/16 01:50:37;;;;;;;19.35;16.75;;;;;;;;;;5078291;28;20467;-80
2023/06/16 01:53:03;;;;;;;18.13;16.15;;;;;;;;;;5061440;28;20088;-80
2023/06/16 01:55:29;;;;;;;18.08;16.17;;;;;;;;;;5066525;28;20074;-80
2023/06/16 01:57:57;;;;;;;19.95;17.48;;;;;;;;;;5080664;28;20055;-80
2023/06/16 02:00:26;;;;;;;19.20;16.38;;;;;;;;;;5081816;28;20139;-80
2023/06/16 02:03:15;;;;;;;22.23;17.73;;;;;;;;;;5071346;28;20044;-80
2023/06/16 02:05:45;;;;;;;19.23;16.92;;;;;;;;;;4999761;28;20089;-80
2023/06/16 02:08:13;;;;;;;18.15;16.00;;;;;;;;;;5003371;28;20057;-80
2023/06/16 02:10:39;;;;;;;19.88;16.13;;;;;;;;;;5014088;28;20109;-80
2023/06/16 02:13:05;;;;;;;20.05;17.30;;;;;;;;;;4982345;28;20046;-79
2023/06/16 02:15:32;;;;;;;19.92;17.13;;;;;;;;;;4998703;28;20109;-80
2023/06/16 02:17:58;;;;;;;20.65;17.23;;;;;;;;;;4999227;28;20125;-80
2023/06/16 02:20:27;;;;;;;20.63;16.80;;;;;;;;;;4998711;28;20121;-79
2023/06/16 02:22:54;;;;;;;22.48;18.52;;;;;;;;;;4997949;28;20051;-79
2023/06/16 02:25:20;;;;;;;20.27;17.58;;;;;;;;;;4999263;28;20057;-80
2023/06/16 02:27:47;;;;;;;22.80;17.90;;;;;;;;;;4998811;28;20073;-79
2023/06/16 02:30:13;;;;;;;22.23;19.33;;;;;;;;;;4984621;28;20106;-79
2023/06/16 02:32:39;;;;;;;22.63;18.80;;;;;;;;;;4981061;28;20046;-80
2023/06/16 02:35:08;;;;;;;19.92;17.30;;;;;;;;;;4986723;28;20517;-80
2023/06/16 02:37:35;;;;;;;19.23;15.35;;;;;;;;;;5002533;28;20073;-80
2023/06/16 02:40:05;;;;;;;17.92;15.88;;;;;;;;;;5002410;28;20042;-80
2023/06/16 02:42:32;;;;;;;20.85;17.35;;;;;;;;;;5039998;28;20056;-80
2023/06/16 02:44:58;;;;;;;17.45;15.63;;;;;;;;;;5050425;28;20068;-79
2023/06/16 02:47:24;;;;;;;19.00;15.82;;;;;;;;;;5070558;28;20033;-80
2023/06/16 02:49:51;;;;;;;22.13;17.73;;;;;;;;;;5064329;28;20040;-80
2023/06/16 02:52:17;;;;;;;21.38;18.60;;;;;;;;;;5073733;28;20056;-80
2023/06/16 02:54:43;;;;;;;22.88;19.77;;;;;;;;;;5084335;28;20044;-80
2023/06/16 02:57:09;;;;;;;21.10;18.73;;;;;;;;;;5084423;28;20064;-80
2023/06/16 02:59:36;;;;;;;22.23;18.80;;;;;;;;;;5084224;28;20044;-80
2023/06/16 03:02:02;;;;;;;21.20;18.40;;;;;;;;;;5083765;28;20113;-80
2023/06/16 03:04:28;;;;;;;21.35;18.13;;;;;;;;;;5082994;28;20099;-80
2023/06/16 03:06:57;;;;;;;22.50;19.33;;;;;;;;;;5087890;28;20036;-79
2023/06/16 03:09:27;;;;;;;22.85;19.27;;;;;;;;;;5090510;28;20055;-79
2023/06/16 03:11:53;;;;;;;21.65;18.58;;;;;;;;;;5092186;28;20044;-79
2023/06/16 03:14:23;;;;;;;21.95;19.10;;;;;;;;;;5090078;28;20037;-80
2023/06/16 03:16:49;;;;;;;25.23;19.70;;;;;;;;;;5084923;28;20048;-80
2023/06/16 03:19:19;;;;;;;23.30;19.67;;;;;;;;;;5066058;28;20068;-80
2023/06/16 03:21:45;;;;;;;21.60;18.63;;;;;;;;;;5064109;28;20076;-80
2023/06/16 03:24:18;;;;;;;24.73;19.48;;;;;;;;;;5083004;28;20044;-80
2023/06/16 03:26:44;;;;;;;26.63;21.10;;;;;;;;;;5082797;28;20059;-80
2023/06/16 03:29:12;;;;;;;21.77;19.05;;;;;;;;;;5083003;28;20124;-80
2023/06/16 03:31:38;;;;;;;23.75;20.42;;;;;;;;;;5078894;28;20045;-80
2023/06/16 03:34:04;;;;;;;21.92;18.27;;;;;;;;;;5082676;28;20037;-80
2023/06/16 03:36:39;;;;;;;23.00;19.60;;;;;;;;;;5078910;28;20036;-80
2023/06/16 03:39:05;;;;;;;20.73;17.55;;;;;;;;;;5082222;28;20153;-80
2023/06/16 03:41:32;;;;;;;21.92;19.55;;;;;;;;;;5081658;28;20124;-80
2023/06/16 03:43:58;;;;;;;21.95;19.17;;;;;;;;;;5081988;28;20106;-80
2023/06/16 03:46:24;;;;;;;22.90;19.40;;;;;;;;;;5080793;28;20063;-80
2023/06/16 03:48:51;;;;;;;29.10;23.70;;;;;;;;;;5081972;28;20053;-80
2023/06/16 03:51:17;;;;;;;24.77;21.25;;;;;;;;;;5080913;28;20092;-80
2023/06/16 03:53:43;;;;;;;25.40;21.30;;;;;;;;;;5047375;28;20136;-80
2023/06/16 03:56:09;;;;;;;24.80;20.77;;;;;;;;;;5082822;28;20044;-80
2023/06/16 03:58:36;;;;;;;25.83;21.55;;;;;;;;;;5081256;28;20076;-80
2023/06/16 04:01:03;;;;;;;24.45;21.13;;;;;;;;;;5062415;28;20057;-80
2023/06/16 04:03:29;;;;;;;24.27;21.02;;;;;;;;;;5062045;28;20045;-79
2023/06/16 04:05:55;;;;;;;26.45;21.15;;;;;;;;;;5063935;28;20048;-80
2023/06/16 04:08:21;;;;;;;23.88;19.75;;;;;;;;;;5052142;28;20060;-80
2023/06/16 04:10:49;;;;;;;23.38;20.83;;;;;;;;;;5061896;28;20041;-79
2023/06/16 04:13:15;;;;;;;22.40;19.98;;;;;;;;;;5067146;28;20037;-80
2023/06/16 04:15:41;;;;;;;23.90;20.17;;;;;;;;;;5080717;28;20483;-80
2023/06/16 04:18:07;;;;;;;22.42;19.42;;;;;;;;;;5081575;28;20136;-80
2023/06/16 04:20:33;;;;;;;27.05;22.23;;;;;;;;;;5080908;28;20084;-80
2023/06/16 04:23:00;;;;;;;24.38;21.10;;;;;;;;;;5080345;28;20048;-80
2023/06/16 04:25:26;;;;;;;25.45;21.77;;;;;;;;;;5062711;28;20131;-80
2023/06/16 04:27:52;;;;;;;24.33;20.70;;;;;;;;;;5063065;28;20067;-79
2023/06/16 04:30:24;;;;;;;27.60;22.95;;;;;;;;;;5062826;28;20045;-80
2023/06/16 04:32:50;;;;;;;30.80;22.88;;;;;;;;;;5080604;28;20044;-80
2023/06/16 04:35:16;;;;;;;28.30;24.10;;;;;;;;;;5078091;28;20044;-79
2023/06/16 04:37:42;;;;;;;26.45;22.80;;;;;;;;;;5083625;28;20040;-79
2023/06/16 04:40:08;;;;;;;25.52;22.20;;;;;;;;;;5088665;28;20048;-79
2023/06/16 04:42:35;;;;;;;23.95;21.33;;;;;;;;;;5085535;28;20049;-79
2023/06/16 04:45:01;;;;;;;24.63;21.52;;;;;;;;;;5060505;28;20091;-80
2023/06/16 04:47:27;;;;;;;28.30;24.02;;;;;;;;;;5080520;28;20036;-80
2023/06/16 04:49:53;;;;;;;27.15;24.15;;;;;;;;;;5080372;28;20056;-79
2023/06/16 04:52:19;;;;;;;28.52;24.75;;;;;;;;;;5063274;28;20493;-80
2023/06/16 04:54:45;;;;;;;29.15;23.75;;;;;;;;;;5080960;28;20086;-80
2023/06/16 04:57:12;;;;;;;28.13;24.15;;;;;;;;;;5080790;28;20048;-80
2023/06/16 04:59:38;;;;;;;27.13;23.38;;;;;;;;;;5079573;28;20104;-80
2023/06/16 05:02:04;;;;;;;27.25;24.05;;;;;;;;;;5080084;28;20040;-80
2023/06/16 05:04:31;;;;;;;27.55;24.00;;;;;;;;;;5079815;28;20055;-80
2023/06/16 05:06:57;;;;;;;27.95;23.80;;;;;;;;;;5073896;28;20112;-80
2023/06/16 05:09:23;;;;;;;25.10;22.10;;;;;;;;;;5059707;28;20052;-80
2023/06/16 05:11:49;;;;;;;26.85;23.25;;;;;;;;;;5060983;28;20051;-80
2023/06/16 05:14:15;;;;;;;25.42;21.90;;;;;;;;;;5053092;28;20052;-80
2023/06/16 05:16:41;;;;;;;26.60;21.15;;;;;;;;;;5080580;28;20061;-80
2023/06/16 05:19:07;;;;;;;24.30;20.77;;;;;;;;;;5080640;28;20040;-80
2023/06/16 05:21:33;;;;;;;22.13;19.75;;;;;;;;;;5078707;28;20053;-80
2023/06/16 05:23:59;;;;;;;22.40;20.00;;;;;;;;;;5061201;28;20041;-80
2023/06/16 05:26:26;;;;;;;21.38;18.17;;;;;;;;;;5077007;28;20538;-80
2023/06/16 05:28:53;;;;;;;19.67;17.40;;;;;;;;;;5054020;28;20062;-80
2023/06/16 05:31:19;;;;;;;21.85;17.20;;;;;;;;;;5068851;28;20049;-79
2023/06/16 05:33:45;;;;;;;20.02;17.25;;;;;;;;;;5056188;28;20483;-79
2023/06/16 05:36:11;;;;;;;19.80;16.70;;;;;;;;;;5073631;28;20048;-79
2023/06/16 05:38:37;;;;;;;18.23;16.27;;;;;;;;;;5049652;28;20051;-80
2023/06/16 05:41:03;;;;;;;18.45;16.45;;;;;;;;;;5056692;28;20524;-80
2023/06/16 05:43:29;;;;;;;20.23;16.50;;;;;;;;;;5070580;28;20047;-79
2023/06/16 05:45:55;;;;;;;16.85;15.05;;;;;;;;;;5050898;28;20040;-79
2023/06/16 05:48:21;;;;;;;16.60;14.90;;;;;;;;;;5070650;28;20049;-79
2023/06/16 05:50:47;;;;;;;16.95;14.65;;;;;;;;;;5071484;28;20044;-79
2023/06/16 05:53:13;;;;;;;16.65;14.43;;;;;;;;;;5032118;28;20470;-79
2023/06/16 05:55:39;;;;;;;14.65;12.35;;;;;;;;;;5071532;28;20044;-79
2023/06/16 05:58:05;;;;;;;16.02;13.00;;;;;;;;;;5066869;28;20167;-79
2023/06/16 06:00:33;;;;;;;13.57;12.10;;;;;;;;;;5063245;28;20055;-78
2023/06/16 06:02:59;;;;;;;16.08;12.30;;;;;;;;;;5054688;28;20119;-79
2023/06/16 06:05:25;;;;;;;14.82;12.43;;;;;;;;;;5073179;28;20056;-79
2023/06/16 06:07:52;;;;;;;21.85;11.98;;;;;;;;;;5075472;28;20499;-79
2023/06/16 06:10:18;;;;;;;13.77;11.52;;;;;;;;;;5065914;28;20044;-79
2023/06/16 06:12:44;;;;;;;12.50;11.13;;;;;;;;;;5058817;28;20051;-78
2023/06/16 06:15:10;;;;;;;11.30;10.10;;;;;;;;;;5053744;28;20407;-79
2023/06/16 06:17:36;;;;;;;12.40;10.82;;;;;;;;;;5074564;28;20546;-79
2023/06/16 06:20:02;;;;;;;13.93;11.13;;;;;;;;;;5075140;28;20097;-79
2023/06/16 06:22:32;;;;;;;14.38;12.18;;;;;;;;;;5074552;28;20040;-79
2023/06/16 06:24:58;;;;;;;14.80;11.38;;;;;;;;;;5074799;28;20074;-79
2023/06/16 06:27:25;;;;;;;14.65;11.60;;;;;;;;;;5073679;28;20527;-79
2023/06/16 06:29:51;;;;;;;15.00;13.40;;;;;;;;;;5072943;28;20491;-79
2023/06/16 06:32:17;;;;;;;14.82;12.43;;;;;;;;;;5074019;28;20115;-78
2023/06/16 06:34:43;;;;;;;14.95;12.27;;;;;;;;;;5072814;28;20080;-78
2023/06/16 06:37:16;;;;;;;15.10;13.38;;;;;;;;;;5072708;28;20043;-78
2023/06/16 06:39:42;;;;;;;15.90;12.82;;;;;;;;;;5072431;28;20052;-78
2023/06/16 06:42:09;;;;;;;13.95;12.23;;;;;;;;;;5053070;28;20167;-78
2023/06/16 06:44:35;;;;;;;13.52;11.80;;;;;;;;;;5070982;28;20076;-78
2023/06/16 06:47:01;;;;;;;14.15;10.80;;;;;;;;;;5072430;28;20142;-78
2023/06/16 06:49:27;;;;;;;15.73;11.32;;;;;;;;;;5070813;28;20047;-80
2023/06/16 06:51:54;;;;;;;12.32;10.45;;;;;;;;;;5071587;28;20048;-79
2023/06/16 06:54:20;;;;;;;12.52;10.23;;;;;;;;;;5073191;28;20037;-79
2023/06/16 06:56:46;;;;;;;11.32;9.60;;;;;;;;;;5072449;28;20495;-78
2023/06/16 06:59:12;;;;;;;10.85;8.98;;;;;;;;;;5073345;28;20048;-78
2023/06/16 07:01:38;;;;;;;15.77;9.40;;;;;;;;;;5066119;28;20043;-79
2023/06/16 07:04:04;;;;;;;10.43;9.02;;;;;;;;;;5071564;28;20131;-78
2023/06/16 07:06:30;;;;;;;10.38;8.30;;;;;;;;;;5071035;28;20063;-78
2023/06/16 17:17:29;;;;;;;6.75;4.88;;;;;;;;;;6265323;22;20600;-79
2023/06/16 17:19:55;;;;;;;7.18;5.20;;;;;;;;;;6256236;22;20098;-80
2023/06/16 17:22:21;;;;;;;6.95;5.18;;;;;;;;;;6238969;23;20027;-80
2023/06/16 17:24:47;;;;;;;8.57;5.20;;;;;;;;;;6235794;23;20016;-81
2023/06/16 17:27:14;;;;;;;8.40;5.22;;;;;;;;;;6258538;23;20046;-82
2023/06/16 17:29:40;;;;;;;10.52;5.28;;;;;;;;;;6257753;23;20095;-81
2023/06/16 17:32:06;;;;;;;7.15;5.07;;;;;;;;;;6230393;23;20051;-81
2023/06/16 17:34:32;;;;;;;15.15;5.47;;;;;;;;;;6269222;23;20016;-80
2023/06/16 17:36:59;;;;;;;6.90;5.03;;;;;;;;;;6249078;23;20039;-80
2023/06/16 17:39:25;;;;;;;7.90;5.20;;;;;;;;;;6263502;23;20030;-80
2023/06/16 17:41:51;;;;;;;7.78;5.78;;;;;;;;;;6257646;23;20044;-80
2023/06/16 17:44:18;;;;;;;7.28;5.20;;;;;;;;;;6230583;23;20020;-81
2023/06/16 17:46:45;;;;;;;6.13;5.18;;;;;;;;;;6230288;23;20090;-81
2023/06/16 17:49:11;;;;;;;8.43;5.50;;;;;;;;;;6230618;23;20024;-84
2023/06/16 17:51:37;;;;;;;9.15;5.82;;;;;;;;;;6258243;23;20024;-85
2023/06/16 17:54:03;;;;;;;7.03;4.93;;;;;;;;;;6230895;23;20091;-83
2023/06/16 17:56:33;;;;;;;9.02;5.75;;;;;;;;;;6257325;23;20090;-83
2023/06/16 17:58:59;;;;;;;7.43;5.63;;;;;;;;;;6258369;23;20011;-83
2023/06/16 18:01:25;;;;;;;7.63;5.43;;;;;;;;;;6258217;23;20012;-83
2023/06/16 18:03:51;;;;;;;7.72;5.78;;;;;;;;;;6257656;23;20012;-83
2023/06/16 18:06:17;;;;;;;6.20;5.60;;;;;;;;;;6229578;23;20098;-83
2023/06/16 18:08:43;;;;;;;12.88;6.07;;;;;;;;;;6205149;23;20023;-83
2023/06/16 18:11:09;;;;;;;7.15;6.03;;;;;;;;;;6229238;23;20012;-82
2023/06/16 18:13:35;;;;;;;9.00;6.38;;;;;;;;;;6205491;23;20446;-83
2023/06/16 18:16:02;;;;;;;6.75;6.00;;;;;;;;;;6229604;23;20027;-83
2023/06/16 18:18:28;;;;;;;7.65;5.88;;;;;;;;;;6230358;23;20016;-83
2023/06/16 18:20:54;;;;;;;6.78;5.93;;;;;;;;;;6205535;23;20019;-83
2023/06/16 18:23:20;;;;;;;7.60;6.05;;;;;;;;;;6205741;23;20016;-82
2023/06/16 18:25:49;;;;;;;8.90;6.50;;;;;;;;;;6228797;23;20027;-83
2023/06/16 18:28:15;;;;;;;9.40;6.40;;;;;;;;;;6252643;23;20021;-82
2023/06/16 18:30:42;;;;;;;9.82;6.63;;;;;;;;;;6223076;23;20078;-83
2023/06/16 18:33:09;;;;;;;8.07;6.25;;;;;;;;;;6197662;23;20397;-83
2023/06/16 18:35:35;;;;;;;10.20;6.20;;;;;;;;;;6223576;23;20054;-83
2023/06/16 18:38:01;;;;;;;8.75;6.40;;;;;;;;;;6223171;23;20323;-83
2023/06/16 18:40:27;;;;;;;7.25;5.95;;;;;;;;;;6222779;23;20446;-83
2023/06/16 18:42:53;;;;;;;9.63;6.50;;;;;;;;;;6249559;23;20401;-83
2023/06/16 18:45:19;;;;;;;7.30;5.63;;;;;;;;;;6250967;23;20016;-83
2023/06/16 18:47:45;;;;;;;9.52;6.68;;;;;;;;;;6246822;23;20024;-83
2023/06/16 18:50:11;;;;;;;8.25;6.47;;;;;;;;;;6220561;23;20024;-83
2023/06/16 18:52:37;;;;;;;10.80;6.47;;;;;;;;;;6220864;23;20036;-83
2023/06/16 18:55:05;;;;;;;8.20;6.10;;;;;;;;;;6196252;23;20020;-83
2023/06/16 18:57:32;;;;;;;10.23;6.07;;;;;;;;;;6197088;23;20039;-83
2023/06/16 18:59:58;;;;;;;9.85;6.53;;;;;;;;;;6222340;23;20380;-83
2023/06/16 19:02:24;;;;;;;16.50;6.97;;;;;;;;;;6223089;23;20423;-83
2023/06/16 19:04:52;;;;;;;9.18;6.93;;;;;;;;;;6238978;23;20028;-83
2023/06/16 19:07:20;;;;;;;8.75;7.03;;;;;;;;;;6229083;23;20016;-82
2023/06/16 19:09:46;;;;;;;9.10;6.80;;;;;;;;;;6199630;23;20051;-83
2023/06/16 19:12:12;;;;;;;10.68;7.82;;;;;;;;;;6249053;23;20070;-83
2023/06/16 19:14:38;;;;;;;9.30;7.30;;;;;;;;;;6221239;23;20016;-83
2023/06/16 19:17:05;;;;;;;10.20;8.38;;;;;;;;;;6221939;23;20016;-82
2023/06/16 19:19:32;;;;;;;10.80;8.02;;;;;;;;;;6249153;23;20085;-82
2023/06/16 19:21:58;;;;;;;11.73;8.52;;;;;;;;;;6221415;23;20450;-82
2023/06/16 19:24:24;;;;;;;11.00;7.13;;;;;;;;;;6254706;23;20027;-82
2023/06/16 19:26:52;;;;;;;9.25;7.35;;;;;;;;;;6260146;23;20455;-82
2023/06/16 19:29:18;;;;;;;11.75;6.82;;;;;;;;;;6251507;23;20012;-83
2023/06/16 19:31:46;;;;;;;9.02;7.20;;;;;;;;;;6251210;23;20051;-83
2023/06/16 19:34:12;;;;;;;11.18;7.45;;;;;;;;;;6222116;23;20568;-83
2023/06/16 19:36:38;;;;;;;9.35;7.60;;;;;;;;;;6196975;23;20016;-83
2023/06/16 19:39:04;;;;;;;10.70;7.50;;;;;;;;;;6249236;23;20016;-83
2023/06/16 19:41:30;;;;;;;10.93;7.70;;;;;;;;;;6221865;23;20374;-83
2023/06/16 19:43:57;;;;;;;8.23;7.00;;;;;;;;;;6248620;23;20030;-83
2023/06/16 19:46:23;;;;;;;10.82;8.00;;;;;;;;;;6249446;23;20050;-83
2023/06/16 19:48:51;;;;;;;8.88;7.53;;;;;;;;;;6195976;23;20034;-84
2023/06/16 19:51:17;;;;;;;11.57;7.85;;;;;;;;;;6222276;23;20087;-83
2023/06/16 19:53:45;;;;;;;10.75;8.15;;;;;;;;;;6248788;23;20020;-83
2023/06/16 19:56:11;;;;;;;19.67;8.13;;;;;;;;;;6195018;23;20016;-85
2023/06/16 19:58:38;;;;;;;10.27;6.85;;;;;;;;;;6220721;23;20023;-84
2023/06/16 20:01:05;;;;;;;9.15;7.43;;;;;;;;;;6196060;23;20024;-83
2023/06/16 20:03:31;;;;;;;12.82;6.97;;;;;;;;;;6222047;23;20063;-83
2023/06/16 20:05:57;;;;;;;9.75;7.28;;;;;;;;;;6222128;23;20050;-84
2023/06/16 20:08:24;;;;;;;9.52;6.93;;;;;;;;;;6196476;23;20016;-83
2023/06/16 20:10:50;;;;;;;10.75;7.18;;;;;;;;;;6248747;23;20020;-83
2023/06/16 20:13:16;;;;;;;9.88;7.05;;;;;;;;;;6248032;23;20039;-84
2023/06/16 20:15:43;;;;;;;10.73;7.50;;;;;;;;;;6220590;23;20394;-84
2023/06/16 20:18:09;;;;;;;12.82;8.18;;;;;;;;;;6182459;23;20030;-83
2023/06/16 20:20:35;;;;;;;10.35;8.00;;;;;;;;;;6215906;23;20511;-85
2023/06/16 20:23:02;;;;;;;12.45;8.18;;;;;;;;;;6239401;23;20100;-84
2023/06/16 20:25:28;;;;;;;11.65;8.60;;;;;;;;;;6214440;23;20008;-84
2023/06/16 20:27:54;;;;;;;13.23;9.02;;;;;;;;;;6215980;23;20023;-84
2023/06/16 20:30:21;;;;;;;11.63;9.25;;;;;;;;;;6240821;23;20017;-84
2023/06/16 20:32:47;;;;;;;12.13;8.82;;;;;;;;;;6244234;23;20024;-84
2023/06/16 20:35:17;;;;;;;12.95;8.50;;;;;;;;;;6236440;23;20074;-84
2023/06/16 20:37:45;;;;;;;13.13;9.27;;;;;;;;;;6232097;23;20053;-85
2023/06/16 20:40:12;;;;;;;10.23;8.60;;;;;;;;;;6216140;23;20052;-85
2023/06/16 20:42:39;;;;;;;14.45;9.85;;;;;;;;;;6189654;23;20042;-85
2023/06/16 20:45:06;;;;;;;13.15;8.50;;;;;;;;;;6239765;23;20016;-85
2023/06/16 20:47:34;;;;;;;12.38;9.05;;;;;;;;;;6238795;23;20079;-84
2023/06/16 20:50:00;;;;;;;12.98;9.38;;;;;;;;;;6215641;23;20321;-85
2023/06/16 20:52:27;;;;;;;14.45;9.40;;;;;;;;;;6238955;23;20027;-84
2023/06/16 20:54:53;;;;;;;12.80;8.73;;;;;;;;;;6238940;23;20045;-84
2023/06/16 20:57:22;;;;;;;13.52;9.43;;;;;;;;;;6238722;23;20091;-85
2023/06/16 20:59:50;;;;;;;13.32;10.13;;;;;;;;;;6215895;23;20013;-84
2023/06/16 21:02:17;;;;;;;11.52;9.85;;;;;;;;;;6238912;23;20029;-84
2023/06/16 21:04:44;;;;;;;13.48;10.38;;;;;;;;;;6215701;23;20087;-84
2023/06/16 21:07:10;;;;;;;13.60;10.13;;;;;;;;;;6241444;23;20103;-83
2023/06/16 21:09:36;;;;;;;12.52;10.07;;;;;;;;;;6217838;23;20021;-83
2023/06/16 21:12:02;;;;;;;12.90;9.75;;;;;;;;;;6242503;23;20027;-83
2023/06/16 21:14:28;;;;;;;12.02;9.93;;;;;;;;;;6217447;23;20016;-83
2023/06/16 21:16:54;;;;;;;14.05;10.32;;;;;;;;;;6219281;23;20013;-83
2023/06/16 21:19:20;;;;;;;13.82;9.77;;;;;;;;;;6219426;23;20017;-83
2023/06/16 21:21:46;;;;;;;13.93;10.07;;;;;;;;;;6219356;23;20027;-83
2023/06/16 21:24:15;;;;;;;13.65;10.48;;;;;;;;;;6242908;23;20075;-83
2023/06/16 21:26:41;;;;;;;12.80;10.00;;;;;;;;;;6244223;23;20087;-83
2023/06/16 21:29:08;;;;;;;12.70;9.40;;;;;;;;;;6252206;23;20017;-83
2023/06/16 21:31:34;;;;;;;12.73;9.85;;;;;;;;;;6246729;23;20017;-84
2023/06/16 21:34:00;;;;;;;16.73;10.43;;;;;;;;;;6242311;23;20020;-83
2023/06/16 21:36:26;;;;;;;13.60;9.45;;;;;;;;;;6219986;23;20340;-83
2023/06/16 21:38:55;;;;;;;13.23;10.68;;;;;;;;;;6243288;23;20064;-83
2023/06/16 21:41:23;;;;;;;14.43;9.40;;;;;;;;;;6243721;23;20029;-83
2023/06/16 21:43:49;;;;;;;13.75;9.98;;;;;;;;;;6240781;23;20012;-84
2023/06/16 21:46:15;;;;;;;13.75;9.73;;;;;;;;;;6241666;23;20096;-83
2023/06/16 21:48:41;;;;;;;11.40;9.55;;;;;;;;;;6241827;23;20063;-83
2023/06/16 21:51:07;;;;;;;14.63;10.23;;;;;;;;;;6217622;23;20017;-85
2023/06/16 21:53:35;;;;;;;14.73;9.57;;;;;;;;;;6240524;23;20024;-84
2023/06/16 21:56:01;;;;;;;13.55;10.73;;;;;;;;;;6216818;23;20027;-84
2023/06/16 21:58:27;;;;;;;16.38;9.93;;;;;;;;;;6239505;23;20025;-83
2023/06/16 22:00:54;;;;;;;17.98;10.20;;;;;;;;;;6242347;23;20013;-83
2023/06/16 22:03:20;;;;;;;12.00;10.05;;;;;;;;;;6228425;23;20086;-83
2023/06/16 22:05:46;;;;;;;14.52;10.77;;;;;;;;;;6241094;23;20039;-82
2023/06/16 22:08:12;;;;;;;14.15;10.48;;;;;;;;;;6256273;23;20455;-83
2023/06/16 22:10:39;;;;;;;15.48;10.68;;;;;;;;;;6222041;23;20013;-83
2023/06/16 22:13:06;;;;;;;14.85;10.07;;;;;;;;;;6221301;23;20020;-83
2023/06/16 22:15:32;;;;;;;13.05;9.90;;;;;;;;;;6244721;23;20052;-83
2023/06/16 22:17:59;;;;;;;14.98;10.48;;;;;;;;;;6220162;23;20024;-83
2023/06/16 22:20:26;;;;;;;15.05;9.93;;;;;;;;;;6220401;23;20017;-83
2023/06/16 22:22:52;;;;;;;13.95;9.50;;;;;;;;;;6220498;23;20098;-83
2023/06/16 22:25:18;;;;;;;14.30;10.10;;;;;;;;;;6244216;23;20021;-83
2023/06/16 22:27:45;;;;;;;13.00;9.75;;;;;;;;;;6243886;23;20020;-83
2023/06/16 22:30:11;;;;;;;16.35;10.10;;;;;;;;;;6220072;23;20044;-83
2023/06/16 22:32:37;;;;;;;15.60;10.23;;;;;;;;;;6243376;23;20392;-83
2023/06/16 22:35:04;;;;;;;13.68;9.80;;;;;;;;;;6243454;23;20072;-83
2023/06/16 22:37:30;;;;;;;12.55;9.57;;;;;;;;;;6244231;23;20463;-83
2023/06/16 22:39:56;;;;;;;12.02;9.52;;;;;;;;;;6243379;23;20017;-83
2023/06/16 22:42:23;;;;;;;13.60;10.05;;;;;;;;;;6243817;23;20055;-83
2023/06/16 22:44:49;;;;;;;17.23;10.15;;;;;;;;;;6243245;23;20020;-83
2023/06/16 22:47:16;;;;;;;14.43;10.80;;;;;;;;;;6243485;23;20024;-83
2023/06/16 22:49:42;;;;;;;14.40;10.80;;;;;;;;;;6241440;23;20028;-83
2023/06/16 22:52:09;;;;;;;15.23;10.63;;;;;;;;;;6243190;23;20320;-83
2023/06/16 22:54:35;;;;;;;13.90;10.07;;;;;;;;;;6219379;23;20025;-83
2023/06/16 22:57:01;;;;;;;17.35;9.90;;;;;;;;;;6219493;23;20012;-83
2023/06/16 22:59:27;;;;;;;15.77;10.73;;;;;;;;;;6219587;23;20021;-83
2023/06/16 23:01:56;;;;;;;14.23;9.88;;;;;;;;;;6220038;23;20048;-83
2023/06/16 23:04:22;;;;;;;12.77;9.70;;;;;;;;;;6220037;23;20025;-83
2023/06/16 23:06:48;;;;;;;13.75;10.48;;;;;;;;;;6219910;23;20040;-83
2023/06/16 23:09:14;;;;;;;16.58;10.75;;;;;;;;;;6219968;23;20451;-83
2023/06/16 23:11:40;;;;;;;12.13;10.20;;;;;;;;;;6239023;23;20416;-83
2023/06/16 23:14:06;;;;;;;16.65;10.35;;;;;;;;;;6239429;23;20020;-83
2023/06/16 23:16:33;;;;;;;12.50;9.93;;;;;;;;;;6217179;23;20012;-83
2023/06/16 23:19:00;;;;;;;14.25;10.07;;;;;;;;;;6239383;23;20056;-83
2023/06/16 23:21:27;;;;;;;13.95;9.80;;;;;;;;;;6240479;23;20031;-83
2023/06/16 23:23:55;;;;;;;15.65;10.70;;;;;;;;;;6217579;23;20023;-83
2023/06/16 23:26:22;;;;;;;15.48;11.02;;;;;;;;;;6216821;23;20500;-83
2023/06/16 23:28:49;;;;;;;14.73;9.95;;;;;;;;;;6240360;23;20098;-83
2023/06/16 23:31:18;;;;;;;16.75;10.77;;;;;;;;;;6256069;23;20020;-83
2023/06/16 23:33:45;;;;;;;14.90;10.23;;;;;;;;;;6238518;23;20027;-82
2023/06/16 23:36:11;;;;;;;15.15;11.40;;;;;;;;;;6235981;23;20013;-83
2023/06/16 23:38:38;;;;;;;17.10;11.60;;;;;;;;;;6221742;23;20348;-83
2023/06/16 23:41:05;;;;;;;20.70;12.10;;;;;;;;;;6220170;23;20023;-83
2023/06/16 23:43:31;;;;;;;17.58;11.82;;;;;;;;;;6219740;23;20079;-83
2023/06/16 23:45:57;;;;;;;18.65;12.57;;;;;;;;;;6245064;23;20025;-83
2023/06/16 23:48:23;;;;;;;18.02;12.27;;;;;;;;;;6243428;23;20398;-82
2023/06/16 23:50:49;;;;;;;15.80;11.68;;;;;;;;;;6217299;23;20074;-83
2023/06/16 23:53:15;;;;;;;20.73;14.43;;;;;;;;;;6216902;23;20016;-83
2023/06/16 23:55:41;;;;;;;20.42;14.30;;;;;;;;;;6216156;23;20066;-83
2023/06/16 23:58:07;;;;;;;23.25;15.07;;;;;;;;;;6217819;23;20043;-82
